createdAt,value
2023-02-03T00:02:09.851Z,73.48
2023-02-03T00:04:38.974Z,73.57
2023-02-03T00:07:08.292Z,73.45
2023-02-03T00:09:37.594Z,73.56
2023-02-03T00:12:09.072Z,73.55
2023-02-03T00:14:39.020Z,73.46
2023-02-03T00:17:08.308Z,73.52
2023-02-03T00:19:37.411Z,73.36
2023-02-03T00:22:06.704Z,73.39
2023-02-03T00:24:35.821Z,73.37
2023-02-03T00:27:05.267Z,73.42
2023-02-03T00:29:35.852Z,73.42
2023-02-03T01:10:59.954Z,73.34
2023-02-03T01:13:30.019Z,73.49
2023-02-03T01:15:59.325Z,73.42
2023-02-03T01:18:28.797Z,73.33
2023-02-03T01:20:58.025Z,73.28
2023-02-03T01:23:29.556Z,73.30
2023-02-03T01:26:04.898Z,73.24
2023-02-03T01:28:34.739Z,73.21
2023-02-03T01:31:12.006Z,73.34
2023-02-03T01:33:42.500Z,73.29
2023-02-03T01:36:11.496Z,73.28
2023-02-03T01:38:41.139Z,73.21
2023-02-03T01:41:14.361Z,73.24
2023-02-03T01:43:46.830Z,73.52
2023-02-03T01:46:29.568Z,73.48
2023-02-03T01:49:06.309Z,73.45
2023-02-03T01:51:36.427Z,73.50
2023-02-03T01:54:08.656Z,73.33
2023-02-03T01:56:43.645Z,73.62
2023-02-03T01:59:16.197Z,73.52
2023-02-03T02:01:46.414Z,73.56
2023-02-03T02:04:16.514Z,73.61
2023-02-03T02:06:48.209Z,73.54
2023-02-03T02:09:18.344Z,73.82
2023-02-03T02:11:49.089Z,73.96
2023-02-03T02:14:18.629Z,73.78
2023-02-03T02:16:55.548Z,73.69
2023-02-03T02:19:55.096Z,74.24
2023-02-03T02:22:31.826Z,74.76
2023-02-03T02:25:31.888Z,74.38
2023-02-03T02:28:12.334Z,74.58
2023-02-03T02:31:14.429Z,74.47
2023-02-03T02:33:53.400Z,74.91
2023-02-03T02:36:31.523Z,75.28
2023-02-03T02:39:07.185Z,75.23
2023-02-03T02:41:44.071Z,75.26
2023-02-03T02:44:18.703Z,76.23
2023-02-03T02:46:51.595Z,75.41
2023-02-03T02:49:28.250Z,75.80
2023-02-03T02:52:01.223Z,75.74
2023-02-03T02:54:32.559Z,75.74
2023-02-03T02:57:05.715Z,75.89
2023-02-03T02:59:35.282Z,76.25
2023-02-03T03:02:05.274Z,76.28
2023-02-03T03:04:37.661Z,75.95
2023-02-03T03:07:13.951Z,75.56
2023-02-03T03:09:47.624Z,76.17
2023-02-03T03:12:21.518Z,75.91
2023-02-03T03:14:55.472Z,75.88
2023-02-03T03:17:29.456Z,75.66
2023-02-03T03:20:04.274Z,75.82
2023-02-03T03:22:40.414Z,75.58
2023-02-03T03:25:16.216Z,75.75
2023-02-03T03:27:51.177Z,75.61
2023-02-03T03:34:03.428Z,75.40
2023-02-03T03:36:41.201Z,75.49
2023-02-03T03:39:16.737Z,75.51
2023-02-03T03:41:56.778Z,75.37
2023-02-03T03:44:32.464Z,75.30
2023-02-03T03:47:10.354Z,75.46
2023-02-03T03:49:45.321Z,75.15
2023-02-03T03:52:20.197Z,75.09
2023-02-03T03:54:51.563Z,75.14
2023-02-03T03:57:24.194Z,75.01
2023-02-03T03:59:55.439Z,75.18
2023-02-03T04:02:25.370Z,74.83
2023-02-03T04:04:56.155Z,75.01
2023-02-03T04:07:38.348Z,75.04
2023-02-03T04:10:15.523Z,75.02
2023-02-03T04:12:44.685Z,74.92
2023-02-03T04:15:14.169Z,74.90
2023-02-03T04:17:43.268Z,74.86
2023-02-03T04:20:13.912Z,74.89
2023-02-03T04:22:44.544Z,74.93
2023-02-03T04:25:13.967Z,74.72
2023-02-03T04:27:43.721Z,74.82
2023-02-03T04:30:14.609Z,74.76
2023-02-03T04:32:43.879Z,74.93
2023-02-03T04:35:13.309Z,74.83
2023-02-03T04:37:44.273Z,74.86
2023-02-03T04:40:14.708Z,74.92
2023-02-03T04:42:43.655Z,74.93
2023-02-03T04:45:14.142Z,75.06
2023-02-03T04:47:43.331Z,75.30
2023-02-03T04:50:12.709Z,75.17
2023-02-03T04:52:42.139Z,75.44
2023-02-03T04:55:12.944Z,75.17
2023-02-03T04:57:42.361Z,75.12
2023-02-03T05:00:13.514Z,75.29
2023-02-03T05:02:42.768Z,75.24
2023-02-03T05:05:12.141Z,75.31
2023-02-03T05:07:41.287Z,75.12
2023-02-03T05:10:13.129Z,75.30
2023-02-03T05:12:42.391Z,75.14
2023-02-03T05:15:11.983Z,75.25
2023-02-03T05:17:41.293Z,75.30
2023-02-03T05:20:11.829Z,75.64
2023-02-03T05:22:41.000Z,75.28
2023-02-03T05:25:12.343Z,75.34
2023-02-03T05:27:42.508Z,75.36
2023-02-03T05:30:13.043Z,75.58
2023-02-03T05:32:42.242Z,75.73
2023-02-03T05:35:11.596Z,75.70
2023-02-03T05:37:40.788Z,75.71
2023-02-03T05:40:30.440Z,75.90
2023-02-03T05:42:59.972Z,76.06
2023-02-03T05:45:29.431Z,76.14
2023-02-03T05:47:58.665Z,75.88
2023-02-03T05:50:30.450Z,75.98
2023-02-03T05:53:09.857Z,75.95
2023-02-03T05:55:41.404Z,75.97
2023-02-03T05:58:10.775Z,76.21
2023-02-03T06:00:40.164Z,76.30
2023-02-03T06:03:09.465Z,76.05
2023-02-03T06:05:41.222Z,76.13
2023-02-03T06:08:10.808Z,76.01
2023-02-03T06:10:41.620Z,76.10
2023-02-03T06:13:12.411Z,76.08
2023-02-03T06:15:42.328Z,76.23
2023-02-03T06:18:11.659Z,76.12
2023-02-03T06:20:41.004Z,76.09
2023-02-03T06:23:10.182Z,75.99
2023-02-03T06:25:40.925Z,76.16
2023-02-03T06:28:10.411Z,76.01
2023-02-03T06:30:39.849Z,76.18
2023-02-03T06:33:09.096Z,76.06
2023-02-03T06:35:38.783Z,76.13
2023-02-03T06:38:08.055Z,76.59
2023-02-03T06:40:37.408Z,76.16
2023-02-03T06:43:07.992Z,76.37
2023-02-03T06:45:37.447Z,76.23
2023-02-03T06:48:06.691Z,76.29
2023-02-03T06:50:36.154Z,76.12
2023-02-03T06:53:05.232Z,76.30
2023-02-03T06:55:34.724Z,76.16
2023-02-03T06:58:03.818Z,76.23
2023-02-03T07:00:34.585Z,76.43
2023-02-03T07:03:04.568Z,76.46
2023-02-03T07:05:36.065Z,76.35
2023-02-03T07:08:05.379Z,76.37
2023-02-03T07:10:36.411Z,76.40
2023-02-03T07:13:06.573Z,76.49
2023-02-03T07:15:37.547Z,76.68
2023-02-03T07:18:06.922Z,76.42
2023-02-03T07:20:36.236Z,77.10
2023-02-03T07:23:05.482Z,76.63
2023-02-03T07:25:35.176Z,76.85
2023-02-03T07:28:04.427Z,76.69
2023-02-03T07:30:34.054Z,76.74
2023-02-03T07:33:05.008Z,77.15
2023-02-03T07:35:35.080Z,77.67
2023-02-03T07:38:04.274Z,76.94
2023-02-03T07:40:33.704Z,76.81
2023-02-03T07:43:02.883Z,76.96
2023-02-03T07:45:32.229Z,77.06
2023-02-03T07:48:01.644Z,76.93
2023-02-03T07:50:33.197Z,77.31
2023-02-03T07:53:03.143Z,77.29
2023-02-03T07:55:32.780Z,77.40
2023-02-03T07:58:03.336Z,77.34
2023-02-03T08:00:33.204Z,77.54
2023-02-03T08:03:02.575Z,77.96
2023-02-03T08:05:33.505Z,77.06
2023-02-03T08:08:02.905Z,77.51
2023-02-03T08:10:32.303Z,77.30
2023-02-03T08:13:01.444Z,77.51
2023-02-03T08:15:30.804Z,77.70
2023-02-03T08:17:59.928Z,77.53
2023-02-03T08:20:29.620Z,77.51
2023-02-03T08:23:00.515Z,77.23
2023-02-03T08:25:30.062Z,77.42
2023-02-03T08:27:59.392Z,77.54
2023-02-03T08:30:29.379Z,77.43
2023-02-03T08:32:59.816Z,77.45
2023-02-03T08:35:29.863Z,77.60
2023-02-03T08:38:00.545Z,77.57
2023-02-03T08:40:30.687Z,77.81
2023-02-03T08:43:00.211Z,77.75
2023-02-03T08:45:29.840Z,77.70
2023-02-03T08:47:59.348Z,77.55
2023-02-03T08:50:29.086Z,77.49
2023-02-03T08:53:00.405Z,77.51
2023-02-03T08:55:30.237Z,77.59
2023-02-03T08:57:59.630Z,77.42
2023-02-03T09:00:29.585Z,77.68
2023-02-03T09:02:58.741Z,77.44
2023-02-03T09:05:28.150Z,77.69
2023-02-03T09:08:00.095Z,77.71
2023-02-03T09:10:30.364Z,77.75
2023-02-03T09:12:59.925Z,77.53
2023-02-03T09:15:29.721Z,77.78
2023-02-03T09:17:59.019Z,77.72
2023-02-03T09:20:29.459Z,77.53
2023-02-03T09:23:01.633Z,77.54
2023-02-03T09:25:31.341Z,77.72
2023-02-03T09:28:02.465Z,77.51
2023-02-03T09:30:32.447Z,77.28
2023-02-03T09:33:02.162Z,77.24
2023-02-03T09:35:31.528Z,77.54
2023-02-03T09:38:02.454Z,77.37
2023-02-03T09:40:36.396Z,77.67
2023-02-03T09:43:24.183Z,77.51
2023-02-03T09:45:53.801Z,77.69
2023-02-03T09:48:26.066Z,77.57
2023-02-03T09:50:56.550Z,77.54
2023-02-03T09:53:32.178Z,77.72
2023-02-03T09:56:02.005Z,77.40
2023-02-03T09:58:35.870Z,77.79
2023-02-03T10:01:10.091Z,77.65
2023-02-03T10:03:45.664Z,77.67
2023-02-03T10:06:24.583Z,77.63
2023-02-03T10:09:11.031Z,77.61
2023-02-03T10:11:54.535Z,77.47
2023-02-03T10:14:40.291Z,77.60
2023-02-03T10:17:20.383Z,77.74
2023-02-03T10:19:56.529Z,77.94
2023-02-03T10:22:29.765Z,77.80
2023-02-03T10:25:06.657Z,77.73
2023-02-03T10:27:38.547Z,77.86
2023-02-03T10:30:19.218Z,77.79
2023-02-03T10:32:53.595Z,78.10
2023-02-03T10:35:27.357Z,77.91
2023-02-03T10:38:00.232Z,77.92
2023-02-03T10:40:31.768Z,77.85
2023-02-03T10:43:18.774Z,77.98
2023-02-03T10:45:48.086Z,78.09
2023-02-03T10:48:20.689Z,78.35
2023-02-03T10:50:51.839Z,77.92
2023-02-03T10:53:23.872Z,78.28
2023-02-03T10:56:04.916Z,78.53
2023-02-03T10:58:35.590Z,78.32
2023-02-03T11:01:11.863Z,78.56
2023-02-03T11:03:45.343Z,78.38
2023-02-03T11:06:16.707Z,78.63
2023-02-03T11:08:48.281Z,78.50
2023-02-03T11:11:25.350Z,78.77
2023-02-03T11:13:57.169Z,78.87
2023-02-03T11:16:26.666Z,78.59
2023-02-03T11:19:02.743Z,79.18
2023-02-03T11:21:35.047Z,78.90
2023-02-03T11:24:07.869Z,79.08
2023-02-03T11:26:44.346Z,78.98
2023-02-03T11:29:23.445Z,79.25
2023-02-03T11:31:56.068Z,79.14
2023-02-03T11:34:29.212Z,79.17
2023-02-03T11:36:58.802Z,79.18
2023-02-03T11:39:30.271Z,79.14
2023-02-03T11:42:01.178Z,79.34
2023-02-03T11:44:33.660Z,79.21
2023-02-03T11:47:08.771Z,79.07
2023-02-03T11:50:10.205Z,78.92
2023-02-03T11:53:03.056Z,79.06
2023-02-03T11:55:44.939Z,79.26
2023-02-03T11:58:44.894Z,79.44
2023-02-03T12:01:24.645Z,79.41
2023-02-03T12:04:36.797Z,79.48
2023-02-03T12:07:23.606Z,79.50
2023-02-03T12:10:05.610Z,79.47
2023-02-03T12:12:52.624Z,79.47
2023-02-03T12:15:55.059Z,79.77
2023-02-03T12:18:37.651Z,79.37
2023-02-03T12:21:24.399Z,79.64
2023-02-03T12:24:01.778Z,79.98
2023-02-03T12:26:40.427Z,79.70
2023-02-03T12:29:15.567Z,80.00
2023-02-03T12:31:52.886Z,80.04
2023-02-03T12:34:29.362Z,79.60
2023-02-03T12:37:03.346Z,79.57
2023-02-03T12:39:36.884Z,79.86
2023-02-03T12:42:15.880Z,79.74
2023-02-03T12:44:50.352Z,79.83
2023-02-03T12:47:29.487Z,79.89
2023-02-03T12:50:04.219Z,80.23
2023-02-03T12:52:40.054Z,79.88
2023-02-03T12:55:21.582Z,80.11
2023-02-03T12:57:58.796Z,79.91
2023-02-03T13:00:42.072Z,80.08
2023-02-03T13:03:31.733Z,80.14
2023-02-03T13:06:09.378Z,80.26
2023-02-03T13:08:42.422Z,79.96
2023-02-03T13:11:21.417Z,80.39
2023-02-03T13:13:53.613Z,79.97
2023-02-03T13:16:27.768Z,80.42
2023-02-03T13:19:05.899Z,80.49
2023-02-03T13:21:35.462Z,80.61
2023-02-03T13:24:06.005Z,80.47
2023-02-03T13:26:55.036Z,80.28
2023-02-03T13:29:59.820Z,80.71
2023-02-03T13:32:55.391Z,80.97
2023-02-03T13:35:38.397Z,80.78
2023-02-03T13:38:27.145Z,80.84
2023-02-03T13:41:06.023Z,80.66
2023-02-03T13:43:39.169Z,80.72
2023-02-03T13:46:20.924Z,80.84
2023-02-03T13:48:50.961Z,80.92
2023-02-03T13:51:25.166Z,80.87
2023-02-03T13:54:03.007Z,81.11
2023-02-03T13:56:33.855Z,80.82
2023-02-03T13:59:06.377Z,80.91
2023-02-03T14:01:40.107Z,80.95
2023-02-03T14:04:31.797Z,80.80
2023-02-03T14:07:05.031Z,81.04
2023-02-03T14:09:42.104Z,80.90
2023-02-03T14:12:37.161Z,80.79
2023-02-03T14:15:24.208Z,80.96
2023-02-03T14:18:01.733Z,80.78
2023-02-03T14:21:03.267Z,80.85
2023-02-03T14:24:00.136Z,80.63
2023-02-03T14:26:38.664Z,80.69
2023-02-03T14:29:09.605Z,80.80
2023-02-03T14:31:57.751Z,80.84
2023-02-03T14:34:33.062Z,81.00
2023-02-03T14:37:21.812Z,80.95
2023-02-03T14:40:23.795Z,80.65
2023-02-03T14:43:21.697Z,80.62
2023-02-03T14:46:15.660Z,80.67
2023-02-03T14:48:59.985Z,81.00
2023-02-03T14:51:53.102Z,80.98
2023-02-03T14:54:38.510Z,80.60
2023-02-03T14:57:23.440Z,80.86
2023-02-03T14:59:59.758Z,80.64
2023-02-03T15:02:31.519Z,80.69
2023-02-03T15:05:38.098Z,80.46
2023-02-03T15:08:22.847Z,80.81
2023-02-03T15:10:52.538Z,80.70
2023-02-03T15:13:28.504Z,80.91
2023-02-03T15:15:59.941Z,80.58
2023-02-03T15:18:32.292Z,80.55
2023-02-03T15:21:01.786Z,80.56
2023-02-03T15:23:42.118Z,80.46
2023-02-03T15:26:15.834Z,80.75
2023-02-03T15:28:54.627Z,80.93
2023-02-03T15:31:31.926Z,80.66
2023-02-03T15:34:07.243Z,80.30
2023-02-03T15:36:43.340Z,80.73
2023-02-03T15:39:24.881Z,80.65
2023-02-03T15:41:58.237Z,80.66
2023-02-03T15:44:34.771Z,80.68
2023-02-03T15:47:08.330Z,80.99
2023-02-03T15:49:43.420Z,80.83
2023-02-03T15:52:18.183Z,80.39
2023-02-03T15:54:53.839Z,80.65
2023-02-03T15:57:27.779Z,81.02
2023-02-03T16:00:14.043Z,80.83
2023-02-03T16:02:46.700Z,81.00
2023-02-03T16:05:26.171Z,80.93
2023-02-03T16:07:56.186Z,80.81
2023-02-03T16:10:30.208Z,80.78
2023-02-03T16:13:24.414Z,80.78
2023-02-03T16:16:08.722Z,80.92
2023-02-03T16:18:39.244Z,80.87
2023-02-03T16:21:32.118Z,80.92
2023-02-03T16:24:01.990Z,80.62
2023-02-03T16:26:34.696Z,80.63
2023-02-03T16:29:34.575Z,80.63
2023-02-03T16:32:36.590Z,80.56
2023-02-03T16:35:29.111Z,80.34
2023-02-03T16:38:23.300Z,80.37
2023-02-03T16:41:10.506Z,80.77
2023-02-03T16:43:57.939Z,80.79
2023-02-03T16:46:44.832Z,80.82
2023-02-03T16:49:32.945Z,80.96
2023-02-03T16:52:06.060Z,80.81
2023-02-03T16:54:37.330Z,80.94
2023-02-03T16:57:06.887Z,81.05
2023-02-03T16:59:35.978Z,80.86
2023-02-03T17:02:05.447Z,80.98
2023-02-03T17:04:36.521Z,81.35
2023-02-03T17:07:06.295Z,80.85
2023-02-03T17:09:35.594Z,80.57
2023-02-03T17:12:05.941Z,80.47
2023-02-03T17:14:35.487Z,80.25
2023-02-03T17:17:04.840Z,80.53
2023-02-03T17:19:38.275Z,80.57
2023-02-03T17:22:08.464Z,80.46
2023-02-03T17:24:37.651Z,80.87
2023-02-03T17:27:07.066Z,80.90
2023-02-03T17:29:36.299Z,81.04
2023-02-03T17:32:05.773Z,80.62
2023-02-03T17:34:35.332Z,81.01
2023-02-03T17:37:05.930Z,80.69
2023-02-03T17:53:33.082Z,80.82
2023-02-03T17:56:08.147Z,80.67
2023-02-03T17:58:38.216Z,80.58
2023-02-03T18:01:15.757Z,80.89
2023-02-03T18:03:46.765Z,80.91
2023-02-03T18:06:16.936Z,80.75
2023-02-03T18:08:50.571Z,80.27
2023-02-03T18:11:21.992Z,80.53
2023-02-03T18:13:52.202Z,80.63
2023-02-03T18:16:26.145Z,80.78
2023-02-03T18:18:58.659Z,80.69
2023-02-03T18:21:28.750Z,80.49
2023-02-03T18:24:02.247Z,80.78
2023-02-03T18:26:34.729Z,80.90
2023-02-03T18:29:05.925Z,81.30
2023-02-03T18:31:35.275Z,81.03
2023-02-03T18:34:06.079Z,80.70
2023-02-03T18:36:35.279Z,80.87
2023-02-03T18:39:06.288Z,81.22
2023-02-03T18:41:36.543Z,80.61
2023-02-03T18:44:06.594Z,80.38
2023-02-03T18:46:36.105Z,80.48
2023-02-03T18:49:08.721Z,80.26
2023-02-03T18:51:38.004Z,80.34
2023-02-03T18:54:08.962Z,80.42
2023-02-03T18:56:38.495Z,80.34
2023-02-03T18:59:09.838Z,80.36
2023-02-03T19:01:40.185Z,80.45
2023-02-03T19:04:10.323Z,80.11
2023-02-03T19:06:45.451Z,80.21
2023-02-03T19:09:19.540Z,80.22
2023-02-03T19:11:48.941Z,80.06
2023-02-03T19:14:20.214Z,80.11
2023-02-03T19:16:51.727Z,79.86
2023-02-03T19:19:21.999Z,79.96
2023-02-03T19:21:54.585Z,79.93
2023-02-03T19:24:27.286Z,79.89
2023-02-03T19:26:56.722Z,79.86
2023-02-03T19:29:26.061Z,80.03
2023-02-03T19:31:56.513Z,79.67
2023-02-03T19:34:27.625Z,79.87
2023-02-03T19:37:01.625Z,79.91
2023-02-03T19:39:32.729Z,79.85
2023-02-03T19:42:04.126Z,79.99
2023-02-03T19:44:33.662Z,80.02
2023-02-03T19:47:03.963Z,79.82
2023-02-03T19:49:34.303Z,79.83
2023-02-03T19:52:04.223Z,79.78
2023-02-03T19:54:35.907Z,79.88
2023-02-03T19:57:07.280Z,79.91
2023-02-03T19:59:36.791Z,79.67
2023-02-03T20:02:13.786Z,79.74
2023-02-03T20:04:44.628Z,79.85
2023-02-03T20:07:14.686Z,80.14
2023-02-03T20:09:46.397Z,80.03
2023-02-03T20:12:16.010Z,79.82
2023-02-03T20:14:46.085Z,80.40
2023-02-03T20:17:15.595Z,80.40
2023-02-03T20:19:45.102Z,80.21
2023-02-03T20:22:15.588Z,80.43
2023-02-03T20:24:46.876Z,80.46
2023-02-03T20:27:18.437Z,80.84
2023-02-03T20:29:49.927Z,80.91
2023-02-03T20:32:23.299Z,81.08
2023-02-03T20:34:54.021Z,81.20
2023-02-03T20:37:23.697Z,81.18
2023-02-03T20:39:56.743Z,81.35
2023-02-03T20:42:28.918Z,81.54
2023-02-03T20:44:58.691Z,81.35
2023-02-03T20:47:28.555Z,81.55
2023-02-03T20:49:59.479Z,81.25
2023-02-03T20:52:29.718Z,81.27
2023-02-03T20:55:00.521Z,81.23
2023-02-03T20:57:32.206Z,81.34
2023-02-03T21:00:03.087Z,81.61
2023-02-03T21:02:50.458Z,81.79
2023-02-03T21:05:27.429Z,81.30
2023-02-03T21:11:01.515Z,81.17
2023-02-03T21:13:36.057Z,81.27
2023-02-03T21:16:17.537Z,81.42
2023-02-03T21:18:50.637Z,81.57
2023-02-03T21:21:24.923Z,82.04
2023-02-03T21:23:56.242Z,81.66
2023-02-03T21:26:28.606Z,81.28
2023-02-03T21:29:00.641Z,81.40
2023-02-03T21:31:32.629Z,81.58
2023-02-03T21:34:04.074Z,81.66
2023-02-03T21:36:36.661Z,81.68
2023-02-03T21:39:25.502Z,81.78
2023-02-03T21:41:56.573Z,81.59
2023-02-03T21:44:31.718Z,81.16
2023-02-03T21:47:05.110Z,81.01
2023-02-03T21:49:35.129Z,81.14
2023-02-03T21:52:05.492Z,81.30
2023-02-03T21:54:42.171Z,80.95
2023-02-03T21:57:15.770Z,80.95
2023-02-03T21:59:47.248Z,80.75
2023-02-03T22:02:46.270Z,80.55
2023-02-03T22:05:17.626Z,80.65
2023-02-03T22:07:46.835Z,80.32
2023-02-03T22:10:16.416Z,80.14
2023-02-03T22:12:47.100Z,79.93
2023-02-03T22:15:16.662Z,79.72
2023-02-03T22:17:48.377Z,79.96
2023-02-03T22:20:17.860Z,79.91
2023-02-03T22:22:46.927Z,79.94
2023-02-03T22:25:16.444Z,79.77
2023-02-03T22:27:46.939Z,79.63
2023-02-03T22:30:18.135Z,79.73
2023-02-03T22:32:47.274Z,79.95
2023-02-03T22:35:16.751Z,79.38
2023-02-03T22:37:45.988Z,79.33
2023-02-03T22:40:15.330Z,79.02
2023-02-03T22:42:46.186Z,79.08
2023-02-03T22:45:16.260Z,78.83
2023-02-03T22:47:45.746Z,78.88
2023-02-03T22:50:17.469Z,78.55
2023-02-03T22:52:50.848Z,78.58
2023-02-03T22:55:20.410Z,78.32
2023-02-03T22:57:52.540Z,78.37
2023-02-03T23:00:23.656Z,78.00
2023-02-03T23:02:52.940Z,77.92
2023-02-03T23:05:23.215Z,77.82
2023-02-03T23:07:52.560Z,78.02
2023-02-03T23:10:24.396Z,77.87
2023-02-03T23:12:55.096Z,77.85
2023-02-03T23:15:24.800Z,77.95
2023-02-03T23:17:54.081Z,78.01
2023-02-03T23:20:23.656Z,77.66
2023-02-03T23:22:52.977Z,77.66
2023-02-03T23:25:22.848Z,77.72
2023-02-03T23:27:52.073Z,77.62
2023-02-03T23:30:23.064Z,76.95
2023-02-03T23:32:52.612Z,76.91
2023-02-03T23:35:39.501Z,77.10
2023-02-03T23:38:08.668Z,76.90
2023-02-03T23:40:38.030Z,77.03
2023-02-03T23:43:07.286Z,77.13
2023-02-03T23:45:37.992Z,76.99
2023-02-03T23:48:07.703Z,76.96
2023-02-03T23:50:37.387Z,76.34
2023-02-03T23:53:06.874Z,76.67
2023-02-03T23:55:36.504Z,76.61
2023-02-03T23:58:06.257Z,76.79
